EDT,Max TemperatureF,Mean TemperatureF,Min TemperatureF,Max Dew PointF,MeanDew PointF,Min DewpointF,Max Humidity, Mean Humidity, Min Humidity, Max Sea Level PressureIn, Mean Sea Level PressureIn, Min Sea Level PressureIn, Max VisibilityMiles, Mean VisibilityMiles, Min VisibilityMiles, Max Wind SpeedMPH, Mean Wind SpeedMPH, Max Gust SpeedMPH,PrecipitationIn, CloudCover, Events, WindDirDegrees
2011-10-1,64,58,52,63,59,51,100,93,88,29.81,29.68,29.63,10,6,2,15,4,,0.15,7,Rain,342
2011-10-2,61,56,52,57,55,52,100,91,78,29.93,29.87,29.79,10,6,2,8,5,,0.01,6,Rain,4
2011-10-3,65,60,54,56,54,46,97,86,50,30.09,30.03,29.93,10,8,2,6,0,,0.02,5,Rain,220
2011-10-4,57,55,53,56,53,52,100,93,87,30.05,29.98,29.93,10,4,1,15,7,,1.69,7,Rain-Thunderstorm,343
2011-10-5,63,54,41,53,43,31,89,64,38,30.25,30.03,29.92,10,10,10,20,11,,0.01,2,Rain,329
2011-10-6,61,48,34,36,30,21,92,62,22,30.38,30.29,30.23,10,10,10,28,5,37,0.04,0,,326
2011-10-7,63,48,34,44,37,32,93,70,31,30.48,30.43,30.39,10,10,10,0,0,,0.00,0,,-1
2011-10-8,81,61,41,58,49,40,93,72,35,30.45,30.39,30.34,10,10,10,6,1,,0.00,0,,300
2011-10-9,84,64,45,60,51,44,93,71,30,30.36,30.30,30.23,10,10,10,9,2,,0.00,0,,301
2011-10-10,81,64,48,61,54,46,93,71,42,30.23,30.17,30.10,10,10,9,16,3,,0.00,0,,318
2011-10-11,68,57,46,52,47,42,96,75,40,30.29,30.24,30.19,10,10,10,8,2,,0.00,0,Rain,328
2011-10-12,59,53,47,55,48,44,96,81,57,30.28,30.20,30.12,10,9,2,10,5,,0.00,5,,32
2011-10-13,60,58,55,58,56,54,100,95,88,30.10,29.91,29.81,10,3,0,8,4,,0.53,7,Fog-Rain,23
2011-10-14,68,62,57,66,60,55,100,96,88,29.81,29.59,29.29,10,3,1,10,2,,0.77,5,Rain,111
2011-10-15,63,58,52,61,47,38,94,69,45,29.64,29.50,29.30,10,10,9,12,7,32,0.02,2,Rain,241
2011-10-16,63,58,52,46,39,35,77,51,34,29.78,29.72,29.66,10,10,10,13,6,23,0.00,3,Rain,261
2011-10-17,63,56,47,50,41,32,89,63,31,29.72,29.66,29.57,10,10,10,12,3,20,0.02,2,Rain,269
2011-10-18,63,52,41,44,40,37,90,68,40,29.97,29.84,29.72,10,10,10,7,0,,0.00,1,,-1
2011-10-19,55,49,43,54,50,42,94,91,82,30.02,29.85,29.67,10,4,1,10,4,,0.72,6,Rain,22
2011-10-20,66,59,52,61,52,47,100,89,52,29.66,29.55,29.44,10,5,1,12,5,22,0.35,6,Rain,52
2011-10-21,61,53,45,45,42,41,86,66,48,29.96,29.83,29.70,10,10,10,10,3,20,0.00,4,,258
2011-10-22,59,51,43,45,42,39,89,69,46,30.09,30.02,29.96,10,10,10,10,2,,0.00,5,Rain,289
2011-10-23,54,45,36,40,37,34,97,79,52,30.17,30.13,30.09,10,10,10,4,0,,0.00,3,,250
2011-10-24,59,46,32,47,40,31,96,80,60,30.18,30.07,29.94,10,10,8,5,0,,0.00,2,Rain,140
2011-10-25,59,49,37,48,38,29,100,74,36,29.99,29.92,29.88,10,8,1,23,3,32,0.01,1,Rain,312
2011-10-26,46,41,36,45,40,32,93,89,85,30.01,29.89,29.78,10,10,8,4,1,,0.06,7,Rain,301
2011-10-27,45,38,32,43,37,32,96,92,87,29.91,29.79,29.71,10,4,2,12,5,,1.03,7,Rain-Snow,3
2011-10-28,45,38,30,32,28,24,93,73,44,30.28,30.13,29.89,10,10,7,15,6,23,0.00,1,,307
2011-10-29,39,34,29,32,30,27,96,87,63,30.29,30.09,29.82,10,4,0,12,4,18,0.07,3,Fog-Rain-Snow,360
2011-10-30,41,34,27,32,28,26,96,76,56,30.30,30.15,29.96,10,10,4,23,14,33,0.36,1,,326
2011-10-31,50,36,23,33,27,21,100,80,39,30.43,30.38,30.32,10,8,1,6,1,,0.00,0,,331